sensor_id;sensor_type;location;lat;lon;timestamp;P1;durP1;ratioP1;P2;durP2;ratioP2
21497;SDS011;10910;50.932;0.246;2024-02-26T00:01:23;1.70;;;1.20;;
21497;SDS011;10910;50.932;0.246;2024-02-26T00:03:49;1.88;;;0.98;;
21497;SDS011;10910;50.932;0.246;2024-02-26T00:06:15;1.58;;;0.90;;
21497;SDS011;10910;50.932;0.246;2024-02-26T00:08:41;4.03;;;1.20;;
21497;SDS011;10910;50.932;0.246;2024-02-26T00:11:06;2.92;;;0.95;;
21497;SDS011;10910;50.932;0.246;2024-02-26T00:13:32;1.17;;;1.00;;
21497;SDS011;10910;50.932;0.246;2024-02-26T00:15:58;3.42;;;1.38;;
21497;SDS011;10910;50.932;0.246;2024-02-26T00:18:23;2.25;;;1.25;;
21497;SDS011;10910;50.932;0.246;2024-02-26T00:20:49;2.47;;;1.10;;
21497;SDS011;10910;50.932;0.246;2024-02-26T00:23:15;4.45;;;1.52;;
21497;SDS011;10910;50.932;0.246;2024-02-26T00:25:41;2.00;;;1.48;;
21497;SDS011;10910;50.932;0.246;2024-02-26T00:28:08;2.95;;;1.58;;
21497;SDS011;10910;50.932;0.246;2024-02-26T00:30:35;3.78;;;1.83;;
21497;SDS011;10910;50.932;0.246;2024-02-26T00:33:01;3.92;;;1.60;;
21497;SDS011;10910;50.932;0.246;2024-02-26T00:35:26;3.53;;;1.60;;
21497;SDS011;10910;50.932;0.246;2024-02-26T00:37:52;6.72;;;2.33;;
21497;SDS011;10910;50.932;0.246;2024-02-26T00:40:18;3.38;;;1.95;;
21497;SDS011;10910;50.932;0.246;2024-02-26T00:42:44;3.28;;;2.30;;
21497;SDS011;10910;50.932;0.246;2024-02-26T00:45:14;4.22;;;2.08;;
21497;SDS011;10910;50.932;0.246;2024-02-26T00:47:41;4.05;;;2.13;;
21497;SDS011;10910;50.932;0.246;2024-02-26T00:50:07;4.18;;;2.03;;
21497;SDS011;10910;50.932;0.246;2024-02-26T00:52:34;3.53;;;2.03;;
21497;SDS011;10910;50.932;0.246;2024-02-26T00:54:59;2.75;;;2.13;;
21497;SDS011;10910;50.932;0.246;2024-02-26T00:57:26;4.25;;;2.15;;
21497;SDS011;10910;50.932;0.246;2024-02-26T00:59:52;2.83;;;1.98;;
21497;SDS011;10910;50.932;0.246;2024-02-26T01:02:17;2.85;;;2.22;;
21497;SDS011;10910;50.932;0.246;2024-02-26T01:04:43;10.57;;;3.00;;
21497;SDS011;10910;50.932;0.246;2024-02-26T01:07:09;5.25;;;2.75;;
21497;SDS011;10910;50.932;0.246;2024-02-26T01:09:35;5.50;;;2.47;;
21497;SDS011;10910;50.932;0.246;2024-02-26T01:12:00;5.85;;;2.90;;
21497;SDS011;10910;50.932;0.246;2024-02-26T01:14:27;12.15;;;2.63;;
21497;SDS011;10910;50.932;0.246;2024-02-26T01:16:53;3.97;;;2.95;;
21497;SDS011;10910;50.932;0.246;2024-02-26T01:19:19;9.82;;;3.30;;
21497;SDS011;10910;50.932;0.246;2024-02-26T01:21:44;9.15;;;3.58;;
21497;SDS011;10910;50.932;0.246;2024-02-26T01:24:10;6.55;;;3.25;;
21497;SDS011;10910;50.932;0.246;2024-02-26T01:26:36;9.35;;;4.00;;
21497;SDS011;10910;50.932;0.246;2024-02-26T01:29:01;11.43;;;3.70;;
21497;SDS011;10910;50.932;0.246;2024-02-26T01:31:27;10.43;;;4.93;;
21497;SDS011;10910;50.932;0.246;2024-02-26T01:33:53;8.20;;;4.00;;
21497;SDS011;10910;50.932;0.246;2024-02-26T01:36:19;14.32;;;4.50;;
21497;SDS011;10910;50.932;0.246;2024-02-26T01:38:45;13.05;;;4.63;;
21497;SDS011;10910;50.932;0.246;2024-02-26T01:41:10;12.02;;;4.55;;
21497;SDS011;10910;50.932;0.246;2024-02-26T01:43:36;11.88;;;4.88;;
21497;SDS011;10910;50.932;0.246;2024-02-26T01:46:02;11.38;;;4.50;;
21497;SDS011;10910;50.932;0.246;2024-02-26T01:48:28;7.53;;;4.00;;
21497;SDS011;10910;50.932;0.246;2024-02-26T01:50:55;8.77;;;4.60;;
21497;SDS011;10910;50.932;0.246;2024-02-26T01:53:20;12.77;;;3.97;;
21497;SDS011;10910;50.932;0.246;2024-02-26T01:55:46;10.85;;;4.13;;
21497;SDS011;10910;50.932;0.246;2024-02-26T01:58:12;15.15;;;4.18;;
21497;SDS011;10910;50.932;0.246;2024-02-26T02:00:39;8.07;;;4.07;;
21497;SDS011;10910;50.932;0.246;2024-02-26T02:03:05;8.63;;;4.50;;
21497;SDS011;10910;50.932;0.246;2024-02-26T02:05:31;16.88;;;3.80;;
21497;SDS011;10910;50.932;0.246;2024-02-26T02:07:58;12.23;;;3.28;;
21497;SDS011;10910;50.932;0.246;2024-02-26T02:10:24;9.55;;;3.70;;
21497;SDS011;10910;50.932;0.246;2024-02-26T02:12:51;8.98;;;3.67;;
21497;SDS011;10910;50.932;0.246;2024-02-26T02:15:17;8.50;;;3.10;;
21497;SDS011;10910;50.932;0.246;2024-02-26T02:17:43;14.23;;;3.80;;
21497;SDS011;10910;50.932;0.246;2024-02-26T02:20:09;13.05;;;4.00;;
21497;SDS011;10910;50.932;0.246;2024-02-26T02:22:42;11.25;;;3.78;;
21497;SDS011;10910;50.932;0.246;2024-02-26T02:25:07;9.32;;;3.25;;
21497;SDS011;10910;50.932;0.246;2024-02-26T02:27:33;13.68;;;3.65;;
21497;SDS011;10910;50.932;0.246;2024-02-26T02:29:59;14.50;;;3.88;;
21497;SDS011;10910;50.932;0.246;2024-02-26T02:32:25;10.32;;;3.65;;
21497;SDS011;10910;50.932;0.246;2024-02-26T02:34:51;11.38;;;3.28;;
21497;SDS011;10910;50.932;0.246;2024-02-26T02:37:17;14.00;;;3.50;;
21497;SDS011;10910;50.932;0.246;2024-02-26T02:39:43;13.35;;;3.67;;
21497;SDS011;10910;50.932;0.246;2024-02-26T02:42:09;8.02;;;3.42;;
21497;SDS011;10910;50.932;0.246;2024-02-26T02:44:35;8.73;;;3.67;;
21497;SDS011;10910;50.932;0.246;2024-02-26T02:47:01;10.48;;;3.33;;
21497;SDS011;10910;50.932;0.246;2024-02-26T02:49:27;10.57;;;4.40;;
21497;SDS011;10910;50.932;0.246;2024-02-26T02:51:52;15.75;;;3.78;;
21497;SDS011;10910;50.932;0.246;2024-02-26T02:54:19;12.75;;;4.13;;
21497;SDS011;10910;50.932;0.246;2024-02-26T02:56:45;7.53;;;3.83;;
21497;SDS011;10910;50.932;0.246;2024-02-26T02:59:11;11.82;;;3.70;;
21497;SDS011;10910;50.932;0.246;2024-02-26T03:01:36;7.80;;;3.30;;
21497;SDS011;10910;50.932;0.246;2024-02-26T03:04:02;12.73;;;4.03;;
21497;SDS011;10910;50.932;0.246;2024-02-26T03:06:28;10.18;;;3.95;;
21497;SDS011;10910;50.932;0.246;2024-02-26T03:08:54;13.90;;;4.82;;
21497;SDS011;10910;50.932;0.246;2024-02-26T03:11:20;12.18;;;4.65;;
21497;SDS011;10910;50.932;0.246;2024-02-26T03:13:45;14.05;;;4.43;;
21497;SDS011;10910;50.932;0.246;2024-02-26T03:16:11;14.18;;;4.53;;
21497;SDS011;10910;50.932;0.246;2024-02-26T03:18:40;10.15;;;3.97;;
21497;SDS011;10910;50.932;0.246;2024-02-26T03:21:06;7.32;;;2.95;;
21497;SDS011;10910;50.932;0.246;2024-02-26T03:23:32;12.68;;;4.22;;
21497;SDS011;10910;50.932;0.246;2024-02-26T03:26:01;13.60;;;4.95;;
21497;SDS011;10910;50.932;0.246;2024-02-26T03:28:28;13.02;;;5.45;;
21497;SDS011;10910;50.932;0.246;2024-02-26T03:30:54;34.85;;;5.78;;
21497;SDS011;10910;50.932;0.246;2024-02-26T03:33:20;18.58;;;6.55;;
21497;SDS011;10910;50.932;0.246;2024-02-26T03:35:45;18.35;;;6.97;;
21497;SDS011;10910;50.932;0.246;2024-02-26T03:38:11;12.27;;;5.43;;
21497;SDS011;10910;50.932;0.246;2024-02-26T03:40:37;19.50;;;6.93;;
21497;SDS011;10910;50.932;0.246;2024-02-26T03:43:02;12.95;;;6.10;;
21497;SDS011;10910;50.932;0.246;2024-02-26T03:45:29;14.75;;;6.40;;
21497;SDS011;10910;50.932;0.246;2024-02-26T03:47:55;20.35;;;6.32;;
21497;SDS011;10910;50.932;0.246;2024-02-26T03:50:21;11.10;;;5.13;;
21497;SDS011;10910;50.932;0.246;2024-02-26T03:52:46;19.15;;;6.50;;
21497;SDS011;10910;50.932;0.246;2024-02-26T03:55:12;15.68;;;7.10;;
21497;SDS011;10910;50.932;0.246;2024-02-26T03:57:38;13.18;;;5.18;;
21497;SDS011;10910;50.932;0.246;2024-02-26T04:00:03;8.98;;;5.05;;
21497;SDS011;10910;50.932;0.246;2024-02-26T04:02:29;14.48;;;5.18;;
21497;SDS011;10910;50.932;0.246;2024-02-26T04:04:55;11.13;;;5.13;;
21497;SDS011;10910;50.932;0.246;2024-02-26T04:07:21;13.82;;;5.13;;
21497;SDS011;10910;50.932;0.246;2024-02-26T04:09:46;11.43;;;5.82;;
21497;SDS011;10910;50.932;0.246;2024-02-26T04:12:12;21.55;;;5.68;;
21497;SDS011;10910;50.932;0.246;2024-02-26T04:14:37;14.57;;;6.20;;
21497;SDS011;10910;50.932;0.246;2024-02-26T04:17:03;20.67;;;6.68;;
21497;SDS011;10910;50.932;0.246;2024-02-26T04:19:29;11.90;;;5.63;;
21497;SDS011;10910;50.932;0.246;2024-02-26T04:21:54;18.20;;;7.32;;
21497;SDS011;10910;50.932;0.246;2024-02-26T04:24:20;22.52;;;9.20;;
21497;SDS011;10910;50.932;0.246;2024-02-26T04:26:46;17.27;;;7.55;;
21497;SDS011;10910;50.932;0.246;2024-02-26T04:29:11;19.50;;;7.13;;
21497;SDS011;10910;50.932;0.246;2024-02-26T04:31:37;13.60;;;6.97;;
21497;SDS011;10910;50.932;0.246;2024-02-26T04:34:04;20.20;;;7.88;;
21497;SDS011;10910;50.932;0.246;2024-02-26T04:36:29;21.38;;;7.95;;
21497;SDS011;10910;50.932;0.246;2024-02-26T04:38:55;22.20;;;7.25;;
21497;SDS011;10910;50.932;0.246;2024-02-26T04:41:21;16.02;;;7.22;;
21497;SDS011;10910;50.932;0.246;2024-02-26T04:43:47;18.20;;;7.65;;
21497;SDS011;10910;50.932;0.246;2024-02-26T04:46:12;19.35;;;7.70;;
21497;SDS011;10910;50.932;0.246;2024-02-26T04:48:38;21.98;;;8.18;;
21497;SDS011;10910;50.932;0.246;2024-02-26T04:51:06;13.23;;;6.70;;
21497;SDS011;10910;50.932;0.246;2024-02-26T04:53:32;15.73;;;6.22;;
21497;SDS011;10910;50.932;0.246;2024-02-26T04:55:57;15.82;;;7.50;;
21497;SDS011;10910;50.932;0.246;2024-02-26T04:58:23;21.23;;;8.00;;
21497;SDS011;10910;50.932;0.246;2024-02-26T05:00:49;17.13;;;7.57;;
21497;SDS011;10910;50.932;0.246;2024-02-26T05:03:15;14.93;;;5.97;;
21497;SDS011;10910;50.932;0.246;2024-02-26T05:05:44;21.80;;;7.82;;
21497;SDS011;10910;50.932;0.246;2024-02-26T05:08:09;16.00;;;7.65;;
21497;SDS011;10910;50.932;0.246;2024-02-26T05:10:36;17.33;;;6.47;;
21497;SDS011;10910;50.932;0.246;2024-02-26T05:13:07;18.02;;;7.03;;
21497;SDS011;10910;50.932;0.246;2024-02-26T05:15:33;20.95;;;6.80;;
21497;SDS011;10910;50.932;0.246;2024-02-26T05:17:59;19.73;;;7.68;;
21497;SDS011;10910;50.932;0.246;2024-02-26T05:20:25;24.20;;;7.70;;
21497;SDS011;10910;50.932;0.246;2024-02-26T05:22:51;16.50;;;6.85;;
21497;SDS011;10910;50.932;0.246;2024-02-26T05:25:17;26.45;;;8.13;;
21497;SDS011;10910;50.932;0.246;2024-02-26T05:27:43;20.98;;;8.18;;
21497;SDS011;10910;50.932;0.246;2024-02-26T05:30:09;18.52;;;7.97;;
21497;SDS011;10910;50.932;0.246;2024-02-26T05:32:36;17.25;;;6.82;;
21497;SDS011;10910;50.932;0.246;2024-02-26T05:35:02;21.30;;;6.75;;
21497;SDS011;10910;50.932;0.246;2024-02-26T05:37:29;16.27;;;7.00;;
21497;SDS011;10910;50.932;0.246;2024-02-26T05:39:55;23.65;;;7.00;;
21497;SDS011;10910;50.932;0.246;2024-02-26T05:42:20;29.33;;;7.72;;
21497;SDS011;10910;50.932;0.246;2024-02-26T05:44:46;14.63;;;6.25;;
21497;SDS011;10910;50.932;0.246;2024-02-26T05:47:12;17.10;;;6.28;;
21497;SDS011;10910;50.932;0.246;2024-02-26T05:49:38;20.52;;;6.72;;
21497;SDS011;10910;50.932;0.246;2024-02-26T05:52:04;22.63;;;6.68;;
21497;SDS011;10910;50.932;0.246;2024-02-26T05:54:30;17.50;;;6.30;;
21497;SDS011;10910;50.932;0.246;2024-02-26T05:56:57;14.68;;;6.15;;
21497;SDS011;10910;50.932;0.246;2024-02-26T05:59:23;18.52;;;6.35;;
21497;SDS011;10910;50.932;0.246;2024-02-26T06:01:49;20.95;;;5.63;;
21497;SDS011;10910;50.932;0.246;2024-02-26T06:04:14;13.57;;;5.38;;
21497;SDS011;10910;50.932;0.246;2024-02-26T06:06:40;18.63;;;4.90;;
21497;SDS011;10910;50.932;0.246;2024-02-26T06:09:06;14.85;;;5.32;;
21497;SDS011;10910;50.932;0.246;2024-02-26T06:11:31;13.95;;;4.15;;
21497;SDS011;10910;50.932;0.246;2024-02-26T06:13:57;17.45;;;5.07;;
21497;SDS011;10910;50.932;0.246;2024-02-26T06:16:23;18.25;;;5.25;;
21497;SDS011;10910;50.932;0.246;2024-02-26T06:18:49;15.18;;;4.15;;
21497;SDS011;10910;50.932;0.246;2024-02-26T06:21:14;13.23;;;5.00;;
21497;SDS011;10910;50.932;0.246;2024-02-26T06:23:40;9.48;;;4.65;;
21497;SDS011;10910;50.932;0.246;2024-02-26T06:26:06;9.13;;;4.50;;
21497;SDS011;10910;50.932;0.246;2024-02-26T06:28:31;18.38;;;4.97;;
21497;SDS011;10910;50.932;0.246;2024-02-26T06:30:59;14.25;;;4.28;;
21497;SDS011;10910;50.932;0.246;2024-02-26T06:33:24;14.52;;;5.05;;
21497;SDS011;10910;50.932;0.246;2024-02-26T06:35:50;10.38;;;3.95;;
21497;SDS011;10910;50.932;0.246;2024-02-26T06:38:16;19.30;;;4.28;;
21497;SDS011;10910;50.932;0.246;2024-02-26T06:40:42;7.13;;;3.90;;
21497;SDS011;10910;50.932;0.246;2024-02-26T06:43:08;6.72;;;3.28;;
21497;SDS011;10910;50.932;0.246;2024-02-26T06:45:34;12.02;;;4.07;;
21497;SDS011;10910;50.932;0.246;2024-02-26T06:48:00;8.13;;;4.22;;
21497;SDS011;10910;50.932;0.246;2024-02-26T06:50:26;9.68;;;4.03;;
21497;SDS011;10910;50.932;0.246;2024-02-26T06:52:52;8.45;;;3.47;;
21497;SDS011;10910;50.932;0.246;2024-02-26T06:55:17;5.22;;;3.10;;
21497;SDS011;10910;50.932;0.246;2024-02-26T06:57:43;14.55;;;3.70;;
21497;SDS011;10910;50.932;0.246;2024-02-26T07:00:09;7.25;;;3.00;;
21497;SDS011;10910;50.932;0.246;2024-02-26T07:02:39;10.55;;;3.22;;
21497;SDS011;10910;50.932;0.246;2024-02-26T07:05:05;7.15;;;2.85;;
21497;SDS011;10910;50.932;0.246;2024-02-26T07:07:31;6.78;;;2.60;;
21497;SDS011;10910;50.932;0.246;2024-02-26T07:09:57;7.10;;;2.75;;
21497;SDS011;10910;50.932;0.246;2024-02-26T07:12:23;7.65;;;2.60;;
21497;SDS011;10910;50.932;0.246;2024-02-26T07:14:49;9.70;;;2.85;;
21497;SDS011;10910;50.932;0.246;2024-02-26T07:17:15;12.27;;;3.53;;
21497;SDS011;10910;50.932;0.246;2024-02-26T07:19:41;10.18;;;2.92;;
21497;SDS011;10910;50.932;0.246;2024-02-26T07:22:07;10.57;;;3.13;;
21497;SDS011;10910;50.932;0.246;2024-02-26T07:24:33;6.75;;;2.90;;
21497;SDS011;10910;50.932;0.246;2024-02-26T07:26:58;9.68;;;2.67;;
21497;SDS011;10910;50.932;0.246;2024-02-26T07:29:24;6.20;;;2.65;;
21497;SDS011;10910;50.932;0.246;2024-02-26T07:31:50;7.65;;;2.60;;
21497;SDS011;10910;50.932;0.246;2024-02-26T07:34:15;5.65;;;2.38;;
21497;SDS011;10910;50.932;0.246;2024-02-26T07:36:41;9.05;;;2.35;;
21497;SDS011;10910;50.932;0.246;2024-02-26T07:39:06;4.68;;;2.15;;
21497;SDS011;10910;50.932;0.246;2024-02-26T07:41:32;7.82;;;2.83;;
21497;SDS011;10910;50.932;0.246;2024-02-26T07:43:58;3.58;;;1.70;;
21497;SDS011;10910;50.932;0.246;2024-02-26T07:46:24;7.38;;;2.30;;
21497;SDS011;10910;50.932;0.246;2024-02-26T07:48:49;4.10;;;2.20;;
21497;SDS011;10910;50.932;0.246;2024-02-26T07:51:15;3.95;;;2.22;;
21497;SDS011;10910;50.932;0.246;2024-02-26T07:53:41;6.57;;;1.70;;
21497;SDS011;10910;50.932;0.246;2024-02-26T07:56:06;11.13;;;2.42;;
21497;SDS011;10910;50.932;0.246;2024-02-26T07:58:32;8.48;;;2.83;;
21497;SDS011;10910;50.932;0.246;2024-02-26T08:00:58;9.50;;;3.05;;
21497;SDS011;10910;50.932;0.246;2024-02-26T08:03:24;2.95;;;1.42;;
21497;SDS011;10910;50.932;0.246;2024-02-26T08:05:50;7.40;;;2.40;;
21497;SDS011;10910;50.932;0.246;2024-02-26T08:08:16;5.80;;;1.50;;
21497;SDS011;10910;50.932;0.246;2024-02-26T08:10:42;7.65;;;1.90;;
21497;SDS011;10910;50.932;0.246;2024-02-26T08:13:08;6.40;;;1.85;;
21497;SDS011;10910;50.932;0.246;2024-02-26T08:15:37;3.20;;;2.10;;
21497;SDS011;10910;50.932;0.246;2024-02-26T08:18:03;7.88;;;1.45;;
21497;SDS011;10910;50.932;0.246;2024-02-26T08:20:29;6.90;;;1.55;;
21497;SDS011;10910;50.932;0.246;2024-02-26T08:22:56;4.28;;;1.63;;
21497;SDS011;10910;50.932;0.246;2024-02-26T08:25:22;5.60;;;2.00;;
21497;SDS011;10910;50.932;0.246;2024-02-26T08:27:48;4.78;;;1.50;;
21497;SDS011;10910;50.932;0.246;2024-02-26T08:30:14;4.63;;;1.55;;
21497;SDS011;10910;50.932;0.246;2024-02-26T08:32:48;3.05;;;1.40;;
21497;SDS011;10910;50.932;0.246;2024-02-26T08:35:14;3.25;;;1.48;;
21497;SDS011;10910;50.932;0.246;2024-02-26T08:37:39;3.92;;;1.33;;
21497;SDS011;10910;50.932;0.246;2024-02-26T08:40:06;5.10;;;1.75;;
21497;SDS011;10910;50.932;0.246;2024-02-26T08:42:32;2.42;;;1.50;;
21497;SDS011;10910;50.932;0.246;2024-02-26T08:44:57;5.07;;;1.65;;
21497;SDS011;10910;50.932;0.246;2024-02-26T08:47:26;5.22;;;1.55;;
21497;SDS011;10910;50.932;0.246;2024-02-26T08:49:53;3.28;;;1.55;;
21497;SDS011;10910;50.932;0.246;2024-02-26T08:52:18;4.63;;;1.63;;
21497;SDS011;10910;50.932;0.246;2024-02-26T08:54:44;3.38;;;1.42;;
21497;SDS011;10910;50.932;0.246;2024-02-26T08:57:10;4.15;;;1.48;;
21497;SDS011;10910;50.932;0.246;2024-02-26T08:59:35;5.60;;;1.55;;
21497;SDS011;10910;50.932;0.246;2024-02-26T09:02:01;2.80;;;1.75;;
21497;SDS011;10910;50.932;0.246;2024-02-26T09:04:27;2.97;;;1.30;;
21497;SDS011;10910;50.932;0.246;2024-02-26T09:06:53;8.43;;;2.13;;
21497;SDS011;10910;50.932;0.246;2024-02-26T09:09:19;2.08;;;1.20;;
21497;SDS011;10910;50.932;0.246;2024-02-26T09:14:13;4.45;;;1.35;;
21497;SDS011;10910;50.932;0.246;2024-02-26T09:16:39;6.97;;;2.25;;
21497;SDS011;10910;50.932;0.246;2024-02-26T09:19:05;2.53;;;1.30;;
21497;SDS011;10910;50.932;0.246;2024-02-26T09:21:30;2.75;;;1.23;;
21497;SDS011;10910;50.932;0.246;2024-02-26T09:23:56;2.67;;;1.30;;
21497;SDS011;10910;50.932;0.246;2024-02-26T09:26:22;8.95;;;2.00;;
21497;SDS011;10910;50.932;0.246;2024-02-26T09:28:47;5.25;;;1.67;;
21497;SDS011;10910;50.932;0.246;2024-02-26T09:31:14;5.03;;;1.48;;
21497;SDS011;10910;50.932;0.246;2024-02-26T09:33:42;4.70;;;1.83;;
21497;SDS011;10910;50.932;0.246;2024-02-26T09:36:07;4.47;;;1.10;;
21497;SDS011;10910;50.932;0.246;2024-02-26T09:38:35;2.92;;;1.60;;
21497;SDS011;10910;50.932;0.246;2024-02-26T09:41:03;5.80;;;1.33;;
21497;SDS011;10910;50.932;0.246;2024-02-26T09:43:35;5.47;;;1.10;;
21497;SDS011;10910;50.932;0.246;2024-02-26T09:46:01;3.78;;;1.50;;
21497;SDS011;10910;50.932;0.246;2024-02-26T09:48:28;5.85;;;1.40;;
21497;SDS011;10910;50.932;0.246;2024-02-26T09:50:55;4.68;;;1.33;;
21497;SDS011;10910;50.932;0.246;2024-02-26T09:53:21;15.23;;;1.52;;
21497;SDS011;10910;50.932;0.246;2024-02-26T09:55:47;4.05;;;1.10;;
21497;SDS011;10910;50.932;0.246;2024-02-26T09:58:13;4.00;;;1.10;;
21497;SDS011;10910;50.932;0.246;2024-02-26T10:00:43;4.18;;;1.60;;
21497;SDS011;10910;50.932;0.246;2024-02-26T10:03:14;4.60;;;1.77;;
21497;SDS011;10910;50.932;0.246;2024-02-26T10:05:41;2.45;;;1.35;;
21497;SDS011;10910;50.932;0.246;2024-02-26T10:08:08;3.42;;;1.23;;
21497;SDS011;10910;50.932;0.246;2024-02-26T10:10:35;6.85;;;1.27;;
21497;SDS011;10910;50.932;0.246;2024-02-26T10:13:03;2.58;;;0.82;;
21497;SDS011;10910;50.932;0.246;2024-02-26T10:15:35;3.13;;;1.05;;
21497;SDS011;10910;50.932;0.246;2024-02-26T10:18:03;5.53;;;1.40;;
21497;SDS011;10910;50.932;0.246;2024-02-26T10:20:30;1.45;;;1.05;;
21497;SDS011;10910;50.932;0.246;2024-02-26T10:22:57;4.25;;;2.03;;
21497;SDS011;10910;50.932;0.246;2024-02-26T10:25:22;6.90;;;1.42;;
21497;SDS011;10910;50.932;0.246;2024-02-26T10:27:48;2.88;;;1.20;;
21497;SDS011;10910;50.932;0.246;2024-02-26T10:30:16;2.75;;;1.10;;
21497;SDS011;10910;50.932;0.246;2024-02-26T10:32:46;5.28;;;1.30;;
21497;SDS011;10910;50.932;0.246;2024-02-26T10:35:15;4.00;;;1.55;;
21497;SDS011;10910;50.932;0.246;2024-02-26T10:37:42;6.57;;;1.35;;
21497;SDS011;10910;50.932;0.246;2024-02-26T10:40:12;3.00;;;1.20;;
21497;SDS011;10910;50.932;0.246;2024-02-26T10:42:38;2.45;;;1.42;;
21497;SDS011;10910;50.932;0.246;2024-02-26T10:45:05;2.55;;;1.10;;
21497;SDS011;10910;50.932;0.246;2024-02-26T10:47:32;3.85;;;1.13;;
21497;SDS011;10910;50.932;0.246;2024-02-26T10:49:59;7.95;;;1.33;;
21497;SDS011;10910;50.932;0.246;2024-02-26T10:52:26;1.02;;;0.77;;
21497;SDS011;10910;50.932;0.246;2024-02-26T10:54:53;3.85;;;1.13;;
21497;SDS011;10910;50.932;0.246;2024-02-26T10:57:20;4.55;;;1.27;;
21497;SDS011;10910;50.932;0.246;2024-02-26T10:59:47;3.15;;;0.95;;
21497;SDS011;10910;50.932;0.246;2024-02-26T11:02:14;2.17;;;1.20;;
21497;SDS011;10910;50.932;0.246;2024-02-26T11:04:40;3.47;;;1.00;;
21497;SDS011;10910;50.932;0.246;2024-02-26T11:07:07;5.22;;;1.17;;
21497;SDS011;10910;50.932;0.246;2024-02-26T11:09:35;5.30;;;1.40;;
21497;SDS011;10910;50.932;0.246;2024-02-26T11:12:07;2.67;;;1.25;;
21497;SDS011;10910;50.932;0.246;2024-02-26T11:14:37;1.83;;;1.13;;
21497;SDS011;10910;50.932;0.246;2024-02-26T11:17:05;1.73;;;0.95;;
21497;SDS011;10910;50.932;0.246;2024-02-26T11:19:32;3.10;;;0.98;;
21497;SDS011;10910;50.932;0.246;2024-02-26T11:22:01;6.10;;;1.45;;
21497;SDS011;10910;50.932;0.246;2024-02-26T11:24:26;3.38;;;1.05;;
21497;SDS011;10910;50.932;0.246;2024-02-26T11:26:54;1.42;;;1.13;;
21497;SDS011;10910;50.932;0.246;2024-02-26T11:29:24;2.15;;;0.75;;
21497;SDS011;10910;50.932;0.246;2024-02-26T11:31:59;1.73;;;0.98;;
21497;SDS011;10910;50.932;0.246;2024-02-26T11:34:25;4.35;;;1.17;;
21497;SDS011;10910;50.932;0.246;2024-02-26T11:36:51;2.50;;;1.00;;
21497;SDS011;10910;50.932;0.246;2024-02-26T11:39:17;2.22;;;1.10;;
21497;SDS011;10910;50.932;0.246;2024-02-26T11:41:43;7.78;;;1.27;;
21497;SDS011;10910;50.932;0.246;2024-02-26T11:44:09;2.92;;;0.90;;
21497;SDS011;10910;50.932;0.246;2024-02-26T11:46:41;3.60;;;1.95;;
21497;SDS011;10910;50.932;0.246;2024-02-26T12:05:20;2.72;;;1.35;;
21497;SDS011;10910;50.932;0.246;2024-02-26T12:07:55;1.70;;;0.98;;
21497;SDS011;10910;50.932;0.246;2024-02-26T12:10:30;2.60;;;1.02;;
21497;SDS011;10910;50.932;0.246;2024-02-26T12:15:40;3.00;;;1.10;;
21497;SDS011;10910;50.932;0.246;2024-02-26T12:18:12;3.22;;;0.88;;
21497;SDS011;10910;50.932;0.246;2024-02-26T12:20:42;3.25;;;0.90;;
21497;SDS011;10910;50.932;0.246;2024-02-26T12:23:09;3.55;;;0.93;;
21497;SDS011;10910;50.932;0.246;2024-02-26T12:25:40;5.32;;;1.00;;
21497;SDS011;10910;50.932;0.246;2024-02-26T12:28:06;0.88;;;0.80;;
21497;SDS011;10910;50.932;0.246;2024-02-26T12:30:32;3.20;;;0.85;;
21497;SDS011;10910;50.932;0.246;2024-02-26T12:32:58;1.83;;;0.80;;
21497;SDS011;10910;50.932;0.246;2024-02-26T12:35:26;1.83;;;1.00;;
21497;SDS011;10910;50.932;0.246;2024-02-26T12:37:55;2.85;;;0.82;;
21497;SDS011;10910;50.932;0.246;2024-02-26T12:40:21;1.23;;;0.70;;
21497;SDS011;10910;50.932;0.246;2024-02-26T12:42:47;2.08;;;0.73;;
21497;SDS011;10910;50.932;0.246;2024-02-26T12:45:13;1.75;;;0.90;;
21497;SDS011;10910;50.932;0.246;2024-02-26T12:47:41;1.23;;;1.08;;
21497;SDS011;10910;50.932;0.246;2024-02-26T12:50:15;1.13;;;0.77;;
21497;SDS011;10910;50.932;0.246;2024-02-26T12:52:43;5.45;;;1.45;;
21497;SDS011;10910;50.932;0.246;2024-02-26T12:55:11;3.15;;;1.20;;
21497;SDS011;10910;50.932;0.246;2024-02-26T12:57:45;6.05;;;1.27;;
21497;SDS011;10910;50.932;0.246;2024-02-26T13:00:12;5.20;;;0.75;;
21497;SDS011;10910;50.932;0.246;2024-02-26T13:02:41;2.17;;;0.60;;
21497;SDS011;10910;50.932;0.246;2024-02-26T13:07:43;2.65;;;0.85;;
21497;SDS011;10910;50.932;0.246;2024-02-26T13:10:09;3.20;;;0.80;;
21497;SDS011;10910;50.932;0.246;2024-02-26T13:12:37;3.38;;;0.98;;
21497;SDS011;10910;50.932;0.246;2024-02-26T13:15:13;2.65;;;0.93;;
21497;SDS011;10910;50.932;0.246;2024-02-26T13:17:40;2.65;;;0.68;;
21497;SDS011;10910;50.932;0.246;2024-02-26T13:20:07;2.10;;;1.42;;
21497;SDS011;10910;50.932;0.246;2024-02-26T13:22:35;5.38;;;1.10;;
21497;SDS011;10910;50.932;0.246;2024-02-26T13:25:01;3.25;;;0.80;;
21497;SDS011;10910;50.932;0.246;2024-02-26T13:27:29;3.95;;;0.80;;
21497;SDS011;10910;50.932;0.246;2024-02-26T13:30:05;3.70;;;0.77;;
21497;SDS011;10910;50.932;0.246;2024-02-26T13:32:34;3.22;;;0.70;;
21497;SDS011;10910;50.932;0.246;2024-02-26T13:35:19;2.47;;;1.00;;
21497;SDS011;10910;50.932;0.246;2024-02-26T13:37:45;1.27;;;0.60;;
21497;SDS011;10910;50.932;0.246;2024-02-26T13:40:10;3.95;;;0.90;;
21497;SDS011;10910;50.932;0.246;2024-02-26T13:42:37;1.92;;;0.75;;
21497;SDS011;10910;50.932;0.246;2024-02-26T13:45:03;3.58;;;0.70;;
21497;SDS011;10910;50.932;0.246;2024-02-26T13:47:35;2.30;;;1.10;;
21497;SDS011;10910;50.932;0.246;2024-02-26T13:50:01;2.63;;;0.75;;
21497;SDS011;10910;50.932;0.246;2024-02-26T13:52:27;1.88;;;0.70;;
21497;SDS011;10910;50.932;0.246;2024-02-26T13:54:53;4.97;;;2.88;;
21497;SDS011;10910;50.932;0.246;2024-02-26T13:57:19;2.65;;;1.23;;
21497;SDS011;10910;50.932;0.246;2024-02-26T13:59:45;0.60;;;0.57;;
21497;SDS011;10910;50.932;0.246;2024-02-26T14:02:11;2.47;;;0.95;;
21497;SDS011;10910;50.932;0.246;2024-02-26T14:04:37;1.27;;;0.80;;
21497;SDS011;10910;50.932;0.246;2024-02-26T14:07:02;1.65;;;0.93;;
21497;SDS011;10910;50.932;0.246;2024-02-26T14:09:29;2.42;;;0.80;;
21497;SDS011;10910;50.932;0.246;2024-02-26T14:11:55;4.22;;;0.77;;
21497;SDS011;10910;50.932;0.246;2024-02-26T14:14:20;1.98;;;0.70;;
21497;SDS011;10910;50.932;0.246;2024-02-26T14:16:46;2.22;;;0.90;;
21497;SDS011;10910;50.932;0.246;2024-02-26T14:19:11;2.50;;;1.17;;
21497;SDS011;10910;50.932;0.246;2024-02-26T14:21:37;3.03;;;0.85;;
21497;SDS011;10910;50.932;0.246;2024-02-26T14:24:03;2.88;;;0.60;;
21497;SDS011;10910;50.932;0.246;2024-02-26T14:26:29;2.70;;;0.82;;
21497;SDS011;10910;50.932;0.246;2024-02-26T14:28:55;1.65;;;0.77;;
21497;SDS011;10910;50.932;0.246;2024-02-26T14:31:21;2.40;;;0.82;;
21497;SDS011;10910;50.932;0.246;2024-02-26T14:33:47;2.53;;;0.73;;
21497;SDS011;10910;50.932;0.246;2024-02-26T14:36:13;1.48;;;0.73;;
21497;SDS011;10910;50.932;0.246;2024-02-26T14:38:39;4.70;;;0.88;;
21497;SDS011;10910;50.932;0.246;2024-02-26T14:41:05;2.95;;;0.93;;
21497;SDS011;10910;50.932;0.246;2024-02-26T14:43:31;2.38;;;0.93;;
21497;SDS011;10910;50.932;0.246;2024-02-26T14:45:57;2.65;;;0.73;;
21497;SDS011;10910;50.932;0.246;2024-02-26T14:48:24;5.00;;;1.27;;
21497;SDS011;10910;50.932;0.246;2024-02-26T14:50:49;2.15;;;0.70;;
21497;SDS011;10910;50.932;0.246;2024-02-26T14:53:15;1.95;;;0.50;;
21497;SDS011;10910;50.932;0.246;2024-02-26T14:55:42;2.03;;;1.00;;
21497;SDS011;10910;50.932;0.246;2024-02-26T14:58:08;3.42;;;0.93;;
21497;SDS011;10910;50.932;0.246;2024-02-26T15:00:36;3.78;;;0.80;;
21497;SDS011;10910;50.932;0.246;2024-02-26T15:03:03;2.78;;;0.90;;